sensor_id;sensor_type;location;lat;lon;timestamp;pressure;altitude;pressure_sealevel;temperature;humidity
5691;BME280;2870;42.680;23.364;2023-08-06T00:00:49;94003.28;;;20.49;100.00
5691;BME280;2870;42.680;23.364;2023-08-06T00:03:16;94009.63;;;20.47;100.00
5691;BME280;2870;42.680;23.364;2023-08-06T00:05:42;94008.97;;;20.49;100.00
5691;BME280;2870;42.680;23.364;2023-08-06T00:08:09;94008.50;;;20.19;100.00
5691;BME280;2870;42.680;23.364;2023-08-06T00:10:35;94006.00;;;20.09;100.00
5691;BME280;2870;42.680;23.364;2023-08-06T00:13:02;94008.09;;;20.26;100.00
5691;BME280;2870;42.680;23.364;2023-08-06T00:15:28;94033.31;;;20.34;100.00
5691;BME280;2870;42.680;23.364;2023-08-06T00:17:54;94027.59;;;20.34;100.00
5691;BME280;2870;42.680;23.364;2023-08-06T00:20:20;94001.31;;;20.35;100.00
5691;BME280;2870;42.680;23.364;2023-08-06T00:22:46;93981.25;;;20.31;100.00
5691;BME280;2870;42.680;23.364;2023-08-06T00:25:13;93996.53;;;20.22;100.00
5691;BME280;2870;42.680;23.364;2023-08-06T00:27:39;94004.53;;;20.26;100.00
5691;BME280;2870;42.680;23.364;2023-08-06T00:30:06;94004.59;;;20.28;100.00
5691;BME280;2870;42.680;23.364;2023-08-06T00:32:32;93989.34;;;20.39;100.00
5691;BME280;2870;42.680;23.364;2023-08-06T00:34:58;93984.00;;;20.29;100.00
5691;BME280;2870;42.680;23.364;2023-08-06T00:37:24;93990.50;;;20.32;100.00
5691;BME280;2870;42.680;23.364;2023-08-06T00:39:50;93989.97;;;20.18;100.00
5691;BME280;2870;42.680;23.364;2023-08-06T00:42:17;93967.19;;;20.00;100.00
5691;BME280;2870;42.680;23.364;2023-08-06T00:44:46;93981.44;;;20.00;100.00
5691;BME280;2870;42.680;23.364;2023-08-06T00:47:12;93987.69;;;19.96;100.00
5691;BME280;2870;42.680;23.364;2023-08-06T00:49:38;93978.69;;;19.84;100.00
5691;BME280;2870;42.680;23.364;2023-08-06T00:52:06;93962.66;;;19.93;100.00
5691;BME280;2870;42.680;23.364;2023-08-06T00:54:34;93963.66;;;19.81;100.00
5691;BME280;2870;42.680;23.364;2023-08-06T00:57:01;93982.19;;;19.82;100.00
5691;BME280;2870;42.680;23.364;2023-08-06T00:59:29;93972.91;;;19.82;100.00
5691;BME280;2870;42.680;23.364;2023-08-06T01:01:55;93960.06;;;19.99;100.00
5691;BME280;2870;42.680;23.364;2023-08-06T01:04:22;93949.56;;;20.03;100.00
5691;BME280;2870;42.680;23.364;2023-08-06T01:06:55;93926.94;;;20.07;100.00
5691;BME280;2870;42.680;23.364;2023-08-06T01:09:33;93931.34;;;20.10;100.00
5691;BME280;2870;42.680;23.364;2023-08-06T01:12:06;93931.25;;;20.08;100.00
5691;BME280;2870;42.680;23.364;2023-08-06T01:14:48;93938.19;;;20.03;100.00
5691;BME280;2870;42.680;23.364;2023-08-06T01:17:18;93935.56;;;20.09;100.00
5691;BME280;2870;42.680;23.364;2023-08-06T01:19:44;93941.44;;;19.96;100.00
5691;BME280;2870;42.680;23.364;2023-08-06T01:22:11;93936.22;;;19.90;100.00
5691;BME280;2870;42.680;23.364;2023-08-06T01:24:37;93918.09;;;19.99;100.00
5691;BME280;2870;42.680;23.364;2023-08-06T01:27:06;93909.34;;;20.13;100.00
5691;BME280;2870;42.680;23.364;2023-08-06T01:29:39;93914.69;;;20.03;100.00
5691;BME280;2870;42.680;23.364;2023-08-06T01:32:08;93918.63;;;20.13;100.00
5691;BME280;2870;42.680;23.364;2023-08-06T01:34:39;93916.03;;;20.20;100.00
5691;BME280;2870;42.680;23.364;2023-08-06T01:37:06;93917.31;;;20.17;100.00
5691;BME280;2870;42.680;23.364;2023-08-06T01:39:33;93921.78;;;20.22;100.00
5691;BME280;2870;42.680;23.364;2023-08-06T01:41:59;93910.63;;;20.28;100.00
5691;BME280;2870;42.680;23.364;2023-08-06T01:44:25;93912.25;;;20.33;100.00
5691;BME280;2870;42.680;23.364;2023-08-06T01:46:52;93902.31;;;20.34;100.00
5691;BME280;2870;42.680;23.364;2023-08-06T01:49:18;93910.06;;;20.31;100.00
5691;BME280;2870;42.680;23.364;2023-08-06T01:51:44;93913.13;;;20.37;100.00
5691;BME280;2870;42.680;23.364;2023-08-06T01:54:10;93903.91;;;20.39;100.00
5691;BME280;2870;42.680;23.364;2023-08-06T01:56:37;93906.53;;;20.33;100.00
5691;BME280;2870;42.680;23.364;2023-08-06T01:59:03;93915.88;;;20.35;100.00
5691;BME280;2870;42.680;23.364;2023-08-06T02:04:42;93899.63;;;20.38;100.00
5691;BME280;2870;42.680;23.364;2023-08-06T02:07:08;93906.34;;;20.47;100.00
5691;BME280;2870;42.680;23.364;2023-08-06T02:09:35;93901.69;;;20.18;100.00
5691;BME280;2870;42.680;23.364;2023-08-06T02:12:02;93891.03;;;20.18;100.00
5691;BME280;2870;42.680;23.364;2023-08-06T02:14:28;93878.03;;;20.13;100.00
5691;BME280;2870;42.680;23.364;2023-08-06T02:16:54;93887.41;;;20.16;100.00
5691;BME280;2870;42.680;23.364;2023-08-06T02:19:20;93895.47;;;20.03;100.00
5691;BME280;2870;42.680;23.364;2023-08-06T02:21:46;93907.63;;;20.24;100.00
5691;BME280;2870;42.680;23.364;2023-08-06T02:24:12;93911.00;;;20.38;100.00
5691;BME280;2870;42.680;23.364;2023-08-06T02:26:38;93923.63;;;20.33;100.00
5691;BME280;2870;42.680;23.364;2023-08-06T02:29:05;93926.09;;;20.23;100.00
5691;BME280;2870;42.680;23.364;2023-08-06T02:31:31;93931.34;;;20.30;100.00
5691;BME280;2870;42.680;23.364;2023-08-06T02:33:57;93915.31;;;20.39;100.00
5691;BME280;2870;42.680;23.364;2023-08-06T02:36:24;93907.16;;;20.49;100.00
5691;BME280;2870;42.680;23.364;2023-08-06T02:38:50;93907.44;;;20.37;100.00
5691;BME280;2870;42.680;23.364;2023-08-06T02:41:16;93920.56;;;20.27;100.00
5691;BME280;2870;42.680;23.364;2023-08-06T02:43:42;93941.50;;;20.16;100.00
5691;BME280;2870;42.680;23.364;2023-08-06T02:46:09;93946.00;;;19.67;100.00
5691;BME280;2870;42.680;23.364;2023-08-06T02:48:35;93953.41;;;19.92;100.00
5691;BME280;2870;42.680;23.364;2023-08-06T02:51:01;93937.72;;;19.91;100.00
5691;BME280;2870;42.680;23.364;2023-08-06T02:53:27;93936.69;;;20.20;100.00
5691;BME280;2870;42.680;23.364;2023-08-06T02:55:53;93914.78;;;20.25;100.00
5691;BME280;2870;42.680;23.364;2023-08-06T02:58:20;93909.84;;;20.25;100.00
5691;BME280;2870;42.680;23.364;2023-08-06T03:00:59;93906.97;;;20.25;100.00
5691;BME280;2870;42.680;23.364;2023-08-06T03:03:26;93894.84;;;20.25;100.00
5691;BME280;2870;42.680;23.364;2023-08-06T03:05:52;93906.38;;;20.29;100.00
5691;BME280;2870;42.680;23.364;2023-08-06T03:08:18;93892.78;;;20.07;100.00
5691;BME280;2870;42.680;23.364;2023-08-06T03:10:47;93890.16;;;20.13;100.00
5691;BME280;2870;42.680;23.364;2023-08-06T03:13:14;93869.16;;;20.23;100.00
5691;BME280;2870;42.680;23.364;2023-08-06T03:15:40;93843.16;;;20.12;100.00
5691;BME280;2870;42.680;23.364;2023-08-06T03:18:06;93863.84;;;19.95;100.00
5691;BME280;2870;42.680;23.364;2023-08-06T03:20:33;93866.25;;;19.83;100.00
5691;BME280;2870;42.680;23.364;2023-08-06T03:22:59;93874.25;;;20.06;100.00
5691;BME280;2870;42.680;23.364;2023-08-06T03:25:25;93857.31;;;20.10;100.00
5691;BME280;2870;42.680;23.364;2023-08-06T03:27:51;93876.41;;;19.88;100.00
5691;BME280;2870;42.680;23.364;2023-08-06T03:30:17;93900.16;;;19.77;100.00
5691;BME280;2870;42.680;23.364;2023-08-06T03:32:43;93930.66;;;19.74;100.00
5691;BME280;2870;42.680;23.364;2023-08-06T03:35:09;93936.34;;;19.74;100.00
5691;BME280;2870;42.680;23.364;2023-08-06T03:37:36;93930.41;;;19.86;100.00
5691;BME280;2870;42.680;23.364;2023-08-06T03:40:02;93943.16;;;20.03;100.00
5691;BME280;2870;42.680;23.364;2023-08-06T03:42:29;93933.84;;;20.02;100.00
5691;BME280;2870;42.680;23.364;2023-08-06T03:44:55;93906.59;;;20.15;100.00
5691;BME280;2870;42.680;23.364;2023-08-06T03:47:21;93891.63;;;20.15;100.00
5691;BME280;2870;42.680;23.364;2023-08-06T03:49:47;93905.16;;;19.96;100.00
5691;BME280;2870;42.680;23.364;2023-08-06T03:52:15;93910.13;;;19.96;100.00
5691;BME280;2870;42.680;23.364;2023-08-06T03:54:41;93917.75;;;20.09;100.00
5691;BME280;2870;42.680;23.364;2023-08-06T03:57:08;93928.41;;;19.91;100.00
5691;BME280;2870;42.680;23.364;2023-08-06T03:59:34;93937.94;;;19.79;100.00
5691;BME280;2870;42.680;23.364;2023-08-06T04:02:01;93937.84;;;19.95;100.00
5691;BME280;2870;42.680;23.364;2023-08-06T04:04:27;93941.50;;;20.16;100.00
5691;BME280;2870;42.680;23.364;2023-08-06T04:06:53;93955.13;;;20.19;100.00
5691;BME280;2870;42.680;23.364;2023-08-06T04:09:19;93953.09;;;20.22;100.00
5691;BME280;2870;42.680;23.364;2023-08-06T04:11:46;93961.66;;;20.42;100.00
5691;BME280;2870;42.680;23.364;2023-08-06T04:14:12;93955.97;;;20.42;100.00
5691;BME280;2870;42.680;23.364;2023-08-06T04:16:38;93955.41;;;20.45;100.00
5691;BME280;2870;42.680;23.364;2023-08-06T04:19:04;93941.06;;;20.61;100.00
5691;BME280;2870;42.680;23.364;2023-08-06T04:21:30;93929.44;;;20.55;100.00
5691;BME280;2870;42.680;23.364;2023-08-06T04:23:56;93920.66;;;20.69;100.00
5691;BME280;2870;42.680;23.364;2023-08-06T04:26:23;93924.13;;;20.65;100.00
5691;BME280;2870;42.680;23.364;2023-08-06T04:28:49;93914.41;;;20.72;100.00
5691;BME280;2870;42.680;23.364;2023-08-06T04:31:15;93913.38;;;20.63;100.00
5691;BME280;2870;42.680;23.364;2023-08-06T04:33:42;93929.16;;;20.67;100.00
5691;BME280;2870;42.680;23.364;2023-08-06T04:36:08;93920.47;;;20.62;100.00
5691;BME280;2870;42.680;23.364;2023-08-06T04:38:34;93902.91;;;20.70;100.00
5691;BME280;2870;42.680;23.364;2023-08-06T04:41:02;93905.63;;;20.46;100.00
5691;BME280;2870;42.680;23.364;2023-08-06T04:43:28;93895.78;;;20.49;100.00
5691;BME280;2870;42.680;23.364;2023-08-06T04:45:55;93886.56;;;20.71;100.00
5691;BME280;2870;42.680;23.364;2023-08-06T04:48:21;93887.22;;;20.49;100.00
5691;BME280;2870;42.680;23.364;2023-08-06T04:50:48;93869.47;;;20.71;100.00
5691;BME280;2870;42.680;23.364;2023-08-06T04:53:14;93865.59;;;20.62;100.00
5691;BME280;2870;42.680;23.364;2023-08-06T04:55:41;93859.00;;;20.77;100.00
5691;BME280;2870;42.680;23.364;2023-08-06T04:58:08;93854.41;;;20.88;100.00
5691;BME280;2870;42.680;23.364;2023-08-06T05:00:34;93855.91;;;20.91;100.00
5691;BME280;2870;42.680;23.364;2023-08-06T05:03:02;93845.63;;;20.82;100.00
5691;BME280;2870;42.680;23.364;2023-08-06T05:05:28;93856.72;;;20.94;100.00
5691;BME280;2870;42.680;23.364;2023-08-06T05:07:55;93863.00;;;20.90;100.00
5691;BME280;2870;42.680;23.364;2023-08-06T05:10:21;93862.31;;;21.11;100.00
5691;BME280;2870;42.680;23.364;2023-08-06T05:12:47;93866.41;;;21.06;100.00
5691;BME280;2870;42.680;23.364;2023-08-06T05:15:13;93874.06;;;21.22;100.00
5691;BME280;2870;42.680;23.364;2023-08-06T05:17:39;93874.66;;;21.40;100.00
5691;BME280;2870;42.680;23.364;2023-08-06T05:20:07;93883.81;;;21.36;100.00
5691;BME280;2870;42.680;23.364;2023-08-06T05:22:33;93879.88;;;21.26;100.00
5691;BME280;2870;42.680;23.364;2023-08-06T05:24:59;93883.38;;;21.24;100.00
5691;BME280;2870;42.680;23.364;2023-08-06T05:27:25;93874.59;;;21.38;100.00
5691;BME280;2870;42.680;23.364;2023-08-06T05:29:55;93871.13;;;21.20;100.00
5691;BME280;2870;42.680;23.364;2023-08-06T05:32:21;93875.31;;;21.16;100.00
5691;BME280;2870;42.680;23.364;2023-08-06T05:34:47;93863.94;;;20.97;100.00
5691;BME280;2870;42.680;23.364;2023-08-06T05:37:14;93872.06;;;21.48;100.00
5691;BME280;2870;42.680;23.364;2023-08-06T05:39:40;93870.66;;;21.71;100.00
5691;BME280;2870;42.680;23.364;2023-08-06T05:42:07;93873.44;;;21.69;100.00
5691;BME280;2870;42.680;23.364;2023-08-06T05:44:33;93862.41;;;22.05;100.00
5691;BME280;2870;42.680;23.364;2023-08-06T05:46:59;93844.41;;;22.01;100.00
5691;BME280;2870;42.680;23.364;2023-08-06T05:49:25;93850.47;;;22.11;100.00
5691;BME280;2870;42.680;23.364;2023-08-06T05:51:51;93858.22;;;22.08;100.00
5691;BME280;2870;42.680;23.364;2023-08-06T05:54:19;93864.00;;;22.10;100.00
5691;BME280;2870;42.680;23.364;2023-08-06T05:56:45;93859.41;;;22.49;100.00
5691;BME280;2870;42.680;23.364;2023-08-06T05:59:11;93866.53;;;22.48;100.00
5691;BME280;2870;42.680;23.364;2023-08-06T06:01:37;93866.75;;;22.56;100.00
5691;BME280;2870;42.680;23.364;2023-08-06T06:04:04;93873.00;;;22.25;100.00
5691;BME280;2870;42.680;23.364;2023-08-06T06:06:30;93877.84;;;22.44;100.00
5691;BME280;2870;42.680;23.364;2023-08-06T06:08:56;93879.69;;;22.59;100.00
5691;BME280;2870;42.680;23.364;2023-08-06T06:11:22;93879.53;;;22.05;98.31
5691;BME280;2870;42.680;23.364;2023-08-06T06:13:50;93882.72;;;22.15;99.15
5691;BME280;2870;42.680;23.364;2023-08-06T06:16:17;93883.53;;;22.18;95.66
5691;BME280;2870;42.680;23.364;2023-08-06T06:18:43;93899.13;;;22.39;98.85
5691;BME280;2870;42.680;23.364;2023-08-06T06:21:09;93911.38;;;22.43;95.58
5691;BME280;2870;42.680;23.364;2023-08-06T06:23:35;93908.75;;;22.75;98.61
5691;BME280;2870;42.680;23.364;2023-08-06T06:26:02;93934.94;;;22.92;97.50
5691;BME280;2870;42.680;23.364;2023-08-06T06:28:28;93922.03;;;22.91;93.59
5691;BME280;2870;42.680;23.364;2023-08-06T06:31:00;93922.25;;;22.99;95.59
5691;BME280;2870;42.680;23.364;2023-08-06T06:33:26;93930.50;;;22.87;96.66
5691;BME280;2870;42.680;23.364;2023-08-06T06:35:52;93927.38;;;22.79;94.38
5691;BME280;2870;42.680;23.364;2023-08-06T06:38:18;93934.53;;;23.04;95.79
5691;BME280;2870;42.680;23.364;2023-08-06T06:40:53;93937.16;;;23.21;92.29
5691;BME280;2870;42.680;23.364;2023-08-06T06:43:19;93934.34;;;23.23;90.11
5691;BME280;2870;42.680;23.364;2023-08-06T06:45:46;93937.09;;;23.47;90.36
5691;BME280;2870;42.680;23.364;2023-08-06T06:48:12;93939.75;;;23.11;88.90
5691;BME280;2870;42.680;23.364;2023-08-06T06:50:38;93956.22;;;23.39;86.65
5691;BME280;2870;42.680;23.364;2023-08-06T06:53:05;93956.22;;;23.13;87.55
5691;BME280;2870;42.680;23.364;2023-08-06T06:55:32;93951.34;;;23.71;87.97
5691;BME280;2870;42.680;23.364;2023-08-06T06:57:58;93959.69;;;23.91;82.91
5691;BME280;2870;42.680;23.364;2023-08-06T07:00:24;93967.22;;;23.22;84.36
5691;BME280;2870;42.680;23.364;2023-08-06T07:02:51;93964.13;;;23.40;88.31
5691;BME280;2870;42.680;23.364;2023-08-06T07:05:18;93969.25;;;22.92;84.62
5691;BME280;2870;42.680;23.364;2023-08-06T07:07:44;93967.44;;;23.59;85.14
5691;BME280;2870;42.680;23.364;2023-08-06T07:10:10;93965.06;;;23.49;83.30
5691;BME280;2870;42.680;23.364;2023-08-06T07:12:36;93979.59;;;23.31;82.91
5691;BME280;2870;42.680;23.364;2023-08-06T07:15:03;93977.91;;;23.48;84.31
5691;BME280;2870;42.680;23.364;2023-08-06T07:17:30;93982.22;;;24.05;82.44
5691;BME280;2870;42.680;23.364;2023-08-06T07:19:57;93985.59;;;23.67;79.66
5691;BME280;2870;42.680;23.364;2023-08-06T07:22:23;93998.41;;;23.38;80.31
5691;BME280;2870;42.680;23.364;2023-08-06T07:24:49;93986.84;;;23.08;80.63
5691;BME280;2870;42.680;23.364;2023-08-06T07:27:15;93987.28;;;23.24;77.84
5691;BME280;2870;42.680;23.364;2023-08-06T07:29:41;93991.88;;;23.90;77.29
5691;BME280;2870;42.680;23.364;2023-08-06T07:32:07;93989.19;;;23.98;75.96
5691;BME280;2870;42.680;23.364;2023-08-06T07:34:33;93998.66;;;24.04;73.66
5691;BME280;2870;42.680;23.364;2023-08-06T07:37:00;94000.94;;;24.70;76.47
5691;BME280;2870;42.680;23.364;2023-08-06T07:39:26;93997.28;;;24.68;70.50
5691;BME280;2870;42.680;23.364;2023-08-06T07:41:54;93991.44;;;24.31;71.36
5691;BME280;2870;42.680;23.364;2023-08-06T07:44:20;94001.94;;;24.51;71.75
5691;BME280;2870;42.680;23.364;2023-08-06T07:46:46;93998.44;;;24.89;69.34
5691;BME280;2870;42.680;23.364;2023-08-06T07:49:12;93993.44;;;25.61;68.36
5691;BME280;2870;42.680;23.364;2023-08-06T07:51:38;93996.56;;;26.16;66.05
5691;BME280;2870;42.680;23.364;2023-08-06T07:54:05;94001.25;;;25.57;65.01
5691;BME280;2870;42.680;23.364;2023-08-06T07:56:31;94003.59;;;26.09;64.87
5691;BME280;2870;42.680;23.364;2023-08-06T07:58:57;94007.19;;;26.07;64.43
5691;BME280;2870;42.680;23.364;2023-08-06T08:01:23;93995.13;;;26.63;64.19
5691;BME280;2870;42.680;23.364;2023-08-06T08:03:49;94001.44;;;27.63;63.05
5691;BME280;2870;42.680;23.364;2023-08-06T08:06:15;93991.91;;;27.50;60.57
5691;BME280;2870;42.680;23.364;2023-08-06T08:08:41;93989.94;;;26.52;63.78
5691;BME280;2870;42.680;23.364;2023-08-06T08:11:08;93985.44;;;27.50;62.97
5691;BME280;2870;42.680;23.364;2023-08-06T08:13:35;93988.38;;;27.56;63.48
5691;BME280;2870;42.680;23.364;2023-08-06T08:16:01;93988.91;;;27.38;61.72
5691;BME280;2870;42.680;23.364;2023-08-06T08:18:27;93987.38;;;26.74;63.46
5691;BME280;2870;42.680;23.364;2023-08-06T08:20:55;93995.97;;;26.26;63.17
5691;BME280;2870;42.680;23.364;2023-08-06T08:23:21;93997.81;;;26.05;69.20
5691;BME280;2870;42.680;23.364;2023-08-06T08:25:47;93994.88;;;25.62;67.34
5691;BME280;2870;42.680;23.364;2023-08-06T08:28:14;93996.03;;;25.85;65.61
5691;BME280;2870;42.680;23.364;2023-08-06T08:30:40;93987.88;;;26.58;64.18
5691;BME280;2870;42.680;23.364;2023-08-06T08:33:06;93992.50;;;26.80;61.35
5691;BME280;2870;42.680;23.364;2023-08-06T08:35:33;93998.13;;;26.25;67.37
5691;BME280;2870;42.680;23.364;2023-08-06T08:37:59;93999.34;;;26.56;63.04
5691;BME280;2870;42.680;23.364;2023-08-06T08:40:30;93991.31;;;27.62;60.12
5691;BME280;2870;42.680;23.364;2023-08-06T08:42:57;93985.47;;;28.31;60.63
5691;BME280;2870;42.680;23.364;2023-08-06T08:45:28;93987.97;;;28.73;56.06
5691;BME280;2870;42.680;23.364;2023-08-06T08:47:55;93996.69;;;28.83;52.73
5691;BME280;2870;42.680;23.364;2023-08-06T08:50:21;93999.81;;;29.26;56.68
5691;BME280;2870;42.680;23.364;2023-08-06T08:52:50;93992.69;;;29.51;50.84
5691;BME280;2870;42.680;23.364;2023-08-06T08:55:16;94000.09;;;30.38;55.21
5691;BME280;2870;42.680;23.364;2023-08-06T08:57:43;93988.41;;;29.71;51.38
5691;BME280;2870;42.680;23.364;2023-08-06T09:00:09;93975.06;;;28.88;55.06
5691;BME280;2870;42.680;23.364;2023-08-06T09:02:37;93974.28;;;27.84;54.92
5691;BME280;2870;42.680;23.364;2023-08-06T09:05:05;93970.19;;;28.12;55.19
5691;BME280;2870;42.680;23.364;2023-08-06T09:07:37;93967.06;;;27.81;54.42
5691;BME280;2870;42.680;23.364;2023-08-06T09:10:07;93964.63;;;27.55;55.17
5691;BME280;2870;42.680;23.364;2023-08-06T09:12:36;93964.84;;;27.11;56.50
5691;BME280;2870;42.680;23.364;2023-08-06T09:15:03;93966.41;;;27.89;56.84
5691;BME280;2870;42.680;23.364;2023-08-06T09:17:29;93964.91;;;27.82;56.23
5691;BME280;2870;42.680;23.364;2023-08-06T09:19:56;93955.53;;;27.14;58.62
5691;BME280;2870;42.680;23.364;2023-08-06T09:22:23;93957.25;;;28.15;59.63
5691;BME280;2870;42.680;23.364;2023-08-06T09:24:49;93943.44;;;29.11;57.06
5691;BME280;2870;42.680;23.364;2023-08-06T09:27:16;93946.78;;;28.60;51.75
5691;BME280;2870;42.680;23.364;2023-08-06T09:29:44;93956.50;;;29.28;50.05
5691;BME280;2870;42.680;23.364;2023-08-06T09:32:11;93952.31;;;29.86;52.48
5691;BME280;2870;42.680;23.364;2023-08-06T09:34:39;93958.09;;;29.74;51.56
5691;BME280;2870;42.680;23.364;2023-08-06T09:37:07;93942.03;;;29.18;52.55
5691;BME280;2870;42.680;23.364;2023-08-06T09:39:34;93945.13;;;30.14;49.12
5691;BME280;2870;42.680;23.364;2023-08-06T09:42:01;93937.75;;;31.02;47.12
5691;BME280;2870;42.680;23.364;2023-08-06T09:44:30;93932.06;;;30.72;47.13
5691;BME280;2870;42.680;23.364;2023-08-06T09:46:58;93949.44;;;29.92;46.54
5691;BME280;2870;42.680;23.364;2023-08-06T09:49:26;93948.56;;;29.28;51.18
5691;BME280;2870;42.680;23.364;2023-08-06T09:51:53;93947.28;;;30.01;46.60
5691;BME280;2870;42.680;23.364;2023-08-06T09:54:23;93953.09;;;30.29;46.33
5691;BME280;2870;42.680;23.364;2023-08-06T09:56:50;93947.31;;;28.32;48.18
5691;BME280;2870;42.680;23.364;2023-08-06T09:59:17;93940.22;;;27.64;50.13
5691;BME280;2870;42.680;23.364;2023-08-06T10:01:43;93940.81;;;27.51;51.63
5691;BME280;2870;42.680;23.364;2023-08-06T10:04:09;93944.78;;;27.86;53.96
5691;BME280;2870;42.680;23.364;2023-08-06T10:06:37;93934.22;;;28.15;49.64
5691;BME280;2870;42.680;23.364;2023-08-06T10:09:04;93938.69;;;28.32;48.69
5691;BME280;2870;42.680;23.364;2023-08-06T10:11:31;93949.19;;;27.97;48.57
5691;BME280;2870;42.680;23.364;2023-08-06T10:14:02;93952.19;;;27.38;50.18
5691;BME280;2870;42.680;23.364;2023-08-06T10:16:31;93946.69;;;26.98;50.92
5691;BME280;2870;42.680;23.364;2023-08-06T10:18:58;93944.44;;;26.90;52.87
5691;BME280;2870;42.680;23.364;2023-08-06T10:21:24;93938.47;;;26.72;50.61
5691;BME280;2870;42.680;23.364;2023-08-06T10:23:54;93937.63;;;27.20;51.30
5691;BME280;2870;42.680;23.364;2023-08-06T10:26:20;93945.56;;;27.92;52.80
5691;BME280;2870;42.680;23.364;2023-08-06T10:28:47;93944.38;;;28.26;48.03
5691;BME280;2870;42.680;23.364;2023-08-06T10:31:13;93949.25;;;29.17;49.34
5691;BME280;2870;42.680;23.364;2023-08-06T10:33:43;93933.06;;;28.57;46.67
5691;BME280;2870;42.680;23.364;2023-08-06T10:36:10;93957.19;;;29.16;48.19
5691;BME280;2870;42.680;23.364;2023-08-06T10:38:44;93964.09;;;28.62;46.98
5691;BME280;2870;42.680;23.364;2023-08-06T10:41:15;93965.56;;;27.76;49.71
5691;BME280;2870;42.680;23.364;2023-08-06T10:43:41;93974.06;;;27.01;50.53
5691;BME280;2870;42.680;23.364;2023-08-06T10:46:11;93965.94;;;26.83;52.40
5691;BME280;2870;42.680;23.364;2023-08-06T10:48:38;93970.00;;;27.20;52.91
5691;BME280;2870;42.680;23.364;2023-08-06T10:51:07;93973.72;;;26.77;52.55
5691;BME280;2870;42.680;23.364;2023-08-06T10:53:33;93979.03;;;26.94;53.10
5691;BME280;2870;42.680;23.364;2023-08-06T10:55:59;93979.13;;;27.05;54.86
5691;BME280;2870;42.680;23.364;2023-08-06T10:58:26;93978.34;;;27.00;52.16
5691;BME280;2870;42.680;23.364;2023-08-06T11:00:52;93984.16;;;27.04;52.47
5691;BME280;2870;42.680;23.364;2023-08-06T11:03:19;93978.97;;;26.92;53.09
5691;BME280;2870;42.680;23.364;2023-08-06T11:05:48;93992.47;;;26.78;52.12
5691;BME280;2870;42.680;23.364;2023-08-06T11:08:23;93992.97;;;26.62;53.77
5691;BME280;2870;42.680;23.364;2023-08-06T11:10:49;93994.41;;;26.63;52.44
5691;BME280;2870;42.680;23.364;2023-08-06T11:13:16;93988.97;;;26.87;54.48
5691;BME280;2870;42.680;23.364;2023-08-06T11:15:42;93984.25;;;27.10;53.65
5691;BME280;2870;42.680;23.364;2023-08-06T11:18:09;93982.44;;;27.39;51.83
5691;BME280;2870;42.680;23.364;2023-08-06T11:20:36;93986.81;;;27.44;50.03
5691;BME280;2870;42.680;23.364;2023-08-06T11:23:02;93996.53;;;27.13;52.09
5691;BME280;2870;42.680;23.364;2023-08-06T11:25:29;94013.66;;;27.03;53.89
5691;BME280;2870;42.680;23.364;2023-08-06T11:27:56;94026.59;;;27.02;54.32
5691;BME280;2870;42.680;23.364;2023-08-06T11:30:22;94047.88;;;26.80;57.48
5691;BME280;2870;42.680;23.364;2023-08-06T11:32:48;94033.03;;;26.07;61.84
5691;BME280;2870;42.680;23.364;2023-08-06T11:35:15;94023.44;;;25.16;63.65
5691;BME280;2870;42.680;23.364;2023-08-06T11:37:45;94005.84;;;25.00;71.34
5691;BME280;2870;42.680;23.364;2023-08-06T11:40:12;94005.84;;;25.00;79.16
5691;BME280;2870;42.680;23.364;2023-08-06T11:42:38;94008.72;;;25.00;75.53
5691;BME280;2870;42.680;23.364;2023-08-06T11:45:04;94004.28;;;24.93;76.50
5691;BME280;2870;42.680;23.364;2023-08-06T11:47:31;93993.53;;;24.61;73.93
5691;BME280;2870;42.680;23.364;2023-08-06T11:49:57;93993.53;;;25.29;79.10
5691;BME280;2870;42.680;23.364;2023-08-06T11:52:24;93998.06;;;25.41;74.52
5691;BME280;2870;42.680;23.364;2023-08-06T11:55:01;94000.81;;;25.34;74.20
5691;BME280;2870;42.680;23.364;2023-08-06T11:57:29;94003.91;;;25.45;74.08
5691;BME280;2870;42.680;23.364;2023-08-06T12:00:01;93991.53;;;25.36;72.12
5691;BME280;2870;42.680;23.364;2023-08-06T12:02:31;93988.50;;;25.66;68.99
5691;BME280;2870;42.680;23.364;2023-08-06T12:05:01;93987.22;;;25.75;65.04
5691;BME280;2870;42.680;23.364;2023-08-06T12:07:31;93989.13;;;26.03;60.55
5691;BME280;2870;42.680;23.364;2023-08-06T12:09:58;93986.41;;;26.11;58.65
5691;BME280;2870;42.680;23.364;2023-08-06T12:12:25;93999.56;;;26.26;55.17
5691;BME280;2870;42.680;23.364;2023-08-06T12:14:51;93988.13;;;26.28;55.86
5691;BME280;2870;42.680;23.364;2023-08-06T12:17:17;93984.75;;;26.92;58.72
5691;BME280;2870;42.680;23.364;2023-08-06T12:19:44;93979.44;;;27.27;55.41
5691;BME280;2870;42.680;23.364;2023-08-06T12:22:10;93981.03;;;27.40;54.85
5691;BME280;2870;42.680;23.364;2023-08-06T12:24:36;93972.28;;;27.30;53.32
5691;BME280;2870;42.680;23.364;2023-08-06T12:27:03;93985.59;;;27.64;52.48
5691;BME280;2870;42.680;23.364;2023-08-06T12:29:29;93978.09;;;27.36;48.83
5691;BME280;2870;42.680;23.364;2023-08-06T12:31:56;93979.41;;;27.23;49.17
5691;BME280;2870;42.680;23.364;2023-08-06T12:34:23;93984.16;;;27.65;50.31
5691;BME280;2870;42.680;23.364;2023-08-06T12:36:49;93979.31;;;27.82;49.42
5691;BME280;2870;42.680;23.364;2023-08-06T12:39:15;93985.84;;;27.86;50.49
5691;BME280;2870;42.680;23.364;2023-08-06T12:41:41;93972.78;;;27.77;49.45
5691;BME280;2870;42.680;23.364;2023-08-06T12:44:08;93984.88;;;27.65;49.52
5691;BME280;2870;42.680;23.364;2023-08-06T12:46:35;93975.41;;;27.53;49.94
5691;BME280;2870;42.680;23.364;2023-08-06T12:49:01;93969.88;;;27.08;48.90
5691;BME280;2870;42.680;23.364;2023-08-06T12:51:27;93964.59;;;26.90;49.38
5691;BME280;2870;42.680;23.364;2023-08-06T12:53:53;93962.28;;;27.37;52.95
5691;BME280;2870;42.680;23.364;2023-08-06T12:56:20;93969.59;;;27.51;51.44
5691;BME280;2870;42.680;23.364;2023-08-06T12:58:46;93973.72;;;27.29;49.84
5691;BME280;2870;42.680;23.364;2023-08-06T13:01:12;93972.56;;;26.96;49.37
5691;BME280;2870;42.680;23.364;2023-08-06T13:03:38;93973.81;;;26.83;50.91
5691;BME280;2870;42.680;23.364;2023-08-06T13:06:05;93968.69;;;27.32;53.92